createdAt,value
2018-07-08T00:01:24.315Z,77.90
2018-07-08T00:03:55.035Z,78.80
2018-07-08T00:06:25.720Z,78.00
2018-07-08T00:08:56.421Z,78.40
2018-07-08T00:11:27.091Z,78.90
2018-07-08T00:13:57.716Z,78.60
2018-07-08T00:16:28.382Z,78.90
2018-07-08T00:18:59.017Z,79.50
2018-07-08T00:21:29.650Z,79.90
2018-07-08T00:24:00.278Z,80.40
2018-07-08T00:26:30.929Z,80.50
2018-07-08T00:29:01.586Z,81.00
2018-07-08T00:31:32.275Z,81.00
2018-07-08T00:34:02.923Z,81.10
2018-07-08T00:36:33.526Z,81.60
2018-07-08T00:39:04.828Z,82.50
2018-07-08T00:41:35.451Z,81.50
2018-07-08T00:44:06.809Z,81.60
2018-07-08T00:46:37.442Z,81.90
2018-07-08T00:49:08.241Z,82.50
2018-07-08T00:51:39.014Z,82.20
2018-07-08T00:54:09.640Z,81.90
2018-07-08T00:56:40.334Z,81.80
2018-07-08T00:59:10.999Z,82.00
2018-07-08T01:01:41.726Z,82.10
2018-07-08T01:04:12.300Z,82.60
2018-07-08T01:06:42.958Z,81.60
2018-07-08T01:09:13.633Z,81.40
2018-07-08T01:11:44.185Z,81.50
2018-07-08T01:14:14.749Z,81.50
2018-07-08T01:16:45.301Z,81.10
2018-07-08T01:21:46.376Z,81.60
2018-07-08T01:24:17.342Z,82.30
2018-07-08T01:26:47.891Z,82.70
2018-07-08T01:29:18.500Z,82.80
2018-07-08T01:31:49.029Z,82.70
2018-07-08T01:34:19.604Z,82.60
2018-07-08T01:36:50.109Z,82.60
2018-07-08T01:39:20.670Z,83.10
2018-07-08T01:41:51.217Z,83.00
2018-07-08T01:44:21.867Z,82.70
2018-07-08T01:46:52.368Z,82.10
2018-07-08T01:49:22.909Z,82.10
2018-07-08T01:51:53.454Z,82.20
2018-07-08T01:54:24.086Z,82.30
2018-07-08T01:56:54.715Z,82.20
2018-07-08T01:59:25.298Z,82.80
2018-07-08T02:01:55.880Z,83.30
2018-07-08T02:04:26.532Z,83.40
2018-07-08T02:06:57.235Z,83.90
2018-07-08T02:09:28.140Z,83.80
2018-07-08T02:11:58.842Z,84.10
2018-07-08T02:14:30.410Z,84.10
2018-07-08T02:17:01.085Z,84.30
2018-07-08T02:19:32.298Z,84.40
2018-07-08T02:22:02.878Z,84.50
2018-07-08T02:24:33.624Z,83.70
2018-07-08T02:27:04.925Z,83.60
2018-07-08T02:29:36.709Z,83.70
2018-07-08T02:32:07.478Z,84.30
2018-07-08T02:34:38.107Z,84.70
2018-07-08T02:37:08.807Z,84.60
2018-07-08T02:39:39.397Z,84.40
2018-07-08T02:42:09.985Z,84.50
2018-07-08T02:44:41.116Z,84.80
2018-07-08T02:47:11.788Z,84.10
2018-07-08T02:49:42.517Z,84.00
2018-07-08T02:52:13.210Z,84.10
2018-07-08T02:54:43.750Z,84.50
2018-07-08T02:57:14.463Z,84.50
2018-07-08T02:59:45.197Z,84.40
2018-07-08T03:02:15.891Z,84.80
2018-07-08T03:04:46.523Z,85.30
2018-07-08T03:07:17.120Z,85.50
2018-07-08T03:09:47.715Z,85.50
2018-07-08T03:12:18.363Z,85.60
2018-07-08T03:14:48.908Z,85.70
2018-07-08T03:17:19.586Z,85.80
2018-07-08T03:19:50.254Z,86.00
2018-07-08T03:22:20.793Z,86.20
2018-07-08T03:24:51.509Z,86.10
2018-07-08T03:27:22.157Z,86.30
2018-07-08T03:29:53.269Z,86.30
2018-07-08T03:34:54.054Z,85.90
2018-07-08T03:37:24.590Z,85.70
2018-07-08T03:39:55.189Z,85.30
2018-07-08T03:42:25.851Z,85.50
2018-07-08T03:44:56.459Z,85.70
2018-07-08T03:47:27.122Z,86.10
2018-07-08T03:49:58.240Z,85.40
2018-07-08T03:52:28.888Z,85.90
2018-07-08T03:54:59.490Z,85.40
2018-07-08T03:57:30.131Z,85.50
2018-07-08T04:00:00.800Z,84.80
2018-07-08T04:02:31.409Z,84.60
2018-07-08T04:05:02.012Z,84.80
2018-07-08T04:07:32.673Z,84.60
2018-07-08T04:10:03.405Z,84.50
2018-07-08T04:12:34.097Z,84.80
2018-07-08T04:15:04.781Z,84.50
2018-07-08T04:17:35.373Z,83.90
2018-07-08T04:20:06.198Z,83.40
2018-07-08T04:22:37.285Z,83.70
2018-07-08T04:25:07.967Z,83.40
2018-07-08T04:27:38.605Z,83.60
2018-07-08T04:30:09.273Z,83.80
2018-07-08T04:32:39.946Z,82.60
2018-07-08T04:35:10.546Z,82.30
2018-07-08T04:37:41.302Z,82.20
2018-07-08T04:40:11.925Z,81.60
2018-07-08T04:42:42.645Z,81.70
2018-07-08T04:45:13.293Z,81.30
2018-07-08T04:47:43.905Z,81.20
2018-07-08T04:50:14.607Z,80.50
2018-07-08T04:52:45.226Z,80.40
2018-07-08T04:55:15.823Z,80.90
2018-07-08T04:57:46.538Z,78.80
2018-07-08T05:00:17.162Z,78.20
2018-07-08T05:02:47.885Z,78.50
2018-07-08T05:05:18.558Z,78.40
2018-07-08T05:07:49.265Z,78.40
2018-07-08T05:10:19.876Z,77.80
2018-07-08T05:12:50.494Z,77.30
2018-07-08T05:15:21.146Z,76.90
2018-07-08T05:17:51.783Z,77.50
2018-07-08T05:20:22.508Z,76.10
2018-07-08T05:22:53.164Z,75.50
2018-07-08T05:25:23.782Z,75.20
2018-07-08T05:27:54.430Z,75.00
2018-07-08T05:30:25.147Z,74.70
2018-07-08T05:32:55.803Z,74.20
2018-07-08T05:35:26.385Z,73.50
2018-07-08T05:37:57.037Z,73.10
2018-07-08T05:40:27.720Z,72.60
2018-07-08T05:42:58.319Z,71.40
2018-07-08T05:45:28.989Z,71.70
2018-07-08T05:47:59.663Z,72.30
2018-07-08T05:50:30.371Z,72.30
2018-07-08T05:53:00.973Z,70.50
2018-07-08T05:55:31.613Z,70.60
2018-07-08T05:58:02.293Z,69.00
2018-07-08T06:00:32.970Z,68.20
2018-07-08T06:03:03.630Z,68.40
2018-07-08T06:05:34.307Z,69.20
2018-07-08T06:08:05.084Z,68.10
2018-07-08T06:10:35.711Z,68.30
2018-07-08T06:13:06.553Z,66.50
2018-07-08T06:15:37.337Z,65.90
2018-07-08T06:18:08.013Z,65.40
2018-07-08T06:20:39.049Z,65.20
2018-07-08T06:23:09.774Z,65.10
2018-07-08T06:25:40.389Z,65.00
2018-07-08T06:28:11.058Z,64.00
2018-07-08T06:30:41.722Z,64.40
2018-07-08T06:33:12.423Z,63.90
2018-07-08T06:35:43.071Z,63.40
2018-07-08T06:38:13.654Z,62.20
2018-07-08T06:40:44.361Z,61.10
2018-07-08T06:43:14.991Z,61.30
2018-07-08T06:45:45.659Z,61.30
2018-07-08T06:48:16.355Z,61.30
2018-07-08T06:50:46.981Z,60.70
2018-07-08T06:53:17.613Z,60.40
2018-07-08T06:55:48.231Z,61.80
2018-07-08T06:58:18.846Z,57.90
2018-07-08T07:00:49.437Z,58.00
2018-07-08T07:03:20.047Z,57.80
2018-07-08T07:05:50.691Z,56.60
2018-07-08T07:08:21.363Z,55.20
2018-07-08T07:10:52.062Z,55.10
2018-07-08T07:13:22.691Z,54.80
2018-07-08T07:15:53.342Z,55.00
2018-07-08T07:18:24.364Z,54.30
2018-07-08T07:20:55.379Z,54.40
2018-07-08T07:23:26.106Z,53.60
2018-07-08T07:25:56.738Z,51.20
2018-07-08T07:28:27.415Z,51.70
2018-07-08T07:30:58.021Z,50.70
2018-07-08T07:33:28.667Z,50.40
2018-07-08T07:35:59.262Z,50.80
2018-07-08T07:38:29.935Z,48.50
2018-07-08T07:41:00.562Z,46.50
2018-07-08T07:43:31.176Z,46.80
2018-07-08T07:46:01.760Z,43.60
2018-07-08T07:48:32.557Z,40.60
2018-07-08T07:51:03.190Z,39.80
2018-07-08T07:53:33.825Z,40.70
2018-07-08T07:56:04.477Z,39.70
2018-07-08T07:58:35.179Z,38.50
2018-07-08T08:01:05.810Z,39.00
2018-07-08T08:03:36.482Z,37.90
2018-07-08T08:06:07.142Z,36.20
2018-07-08T08:08:37.821Z,36.60
2018-07-08T08:11:08.541Z,34.70
2018-07-08T08:13:49.199Z,36.60
2018-07-08T08:16:19.769Z,38.10
2018-07-08T08:18:50.360Z,37.10
2018-07-08T08:21:21.101Z,37.30
2018-07-08T08:23:52.412Z,36.40
2018-07-08T08:26:23.062Z,37.40
2018-07-08T08:28:53.815Z,38.30
2018-07-08T08:31:24.490Z,37.40
2018-07-08T08:35:12.145Z,35.30
2018-07-08T08:37:51.033Z,36.30
2018-07-08T08:40:22.915Z,35.50
2018-07-08T08:42:54.008Z,35.50
2018-07-08T08:45:26.956Z,37.10
2018-07-08T08:47:57.566Z,38.50
2018-07-08T08:50:28.212Z,35.90
2018-07-08T08:52:58.831Z,36.50
2018-07-08T08:55:29.508Z,37.80
2018-07-08T08:58:00.234Z,34.50
2018-07-08T09:00:30.884Z,36.10
2018-07-08T09:03:01.526Z,35.10
2018-07-08T09:05:32.130Z,33.60
2018-07-08T09:08:02.734Z,34.20
2018-07-08T09:10:33.486Z,35.30
2018-07-08T09:13:04.190Z,35.60
2018-07-08T09:15:34.826Z,36.10
2018-07-08T09:18:05.566Z,33.90
2018-07-08T09:20:36.261Z,34.20
2018-07-08T09:23:07.134Z,35.20
2018-07-08T09:25:37.861Z,33.90
2018-07-08T09:28:08.566Z,35.00
2018-07-08T09:30:39.241Z,35.30
2018-07-08T09:33:10.561Z,33.80
2018-07-08T09:38:11.430Z,33.90
2018-07-08T09:40:42.100Z,34.00
2018-07-08T09:43:12.791Z,34.00
2018-07-08T09:45:43.462Z,33.40
2018-07-08T09:48:14.120Z,34.30
2018-07-08T09:50:44.888Z,34.80
2018-07-08T09:53:15.531Z,35.50
2018-07-08T09:55:46.122Z,34.80
2018-07-08T09:58:16.802Z,32.50
2018-07-08T10:00:47.420Z,33.60
2018-07-08T10:03:18.066Z,34.50
2018-07-08T10:05:48.678Z,34.20
2018-07-08T10:08:19.274Z,34.50
2018-07-08T10:10:49.959Z,33.10
2018-07-08T10:13:20.483Z,33.50
2018-07-08T10:15:51.654Z,34.60
2018-07-08T10:18:22.323Z,34.00
2018-07-08T10:20:53.064Z,32.40
2018-07-08T10:23:23.705Z,34.00
2018-07-08T10:25:54.387Z,33.40
2018-07-08T10:28:25.693Z,32.10
2018-07-08T10:30:56.474Z,31.40
2018-07-08T10:33:27.280Z,31.00
2018-07-08T10:35:59.558Z,30.50
2018-07-08T10:38:30.253Z,30.00
2018-07-08T10:41:00.942Z,29.50
2018-07-08T10:43:31.587Z,30.00
2018-07-08T10:46:02.252Z,30.70
2018-07-08T10:48:32.952Z,30.70
2018-07-08T10:51:03.622Z,31.00
2018-07-08T10:53:34.387Z,28.80
2018-07-08T10:56:05.320Z,30.30
2018-07-08T10:58:36.069Z,30.40
2018-07-08T11:01:06.702Z,30.10
2018-07-08T11:03:37.357Z,29.40
2018-07-08T11:06:08.000Z,28.90
2018-07-08T11:08:39.245Z,28.40
2018-07-08T11:11:10.017Z,28.60
2018-07-08T11:13:40.756Z,29.10
2018-07-08T11:16:11.378Z,29.70
2018-07-08T11:18:42.072Z,30.60
2018-07-08T11:21:12.743Z,30.00
2018-07-08T11:23:43.459Z,29.70
2018-07-08T11:26:14.146Z,29.70
2018-07-08T11:28:44.748Z,30.60
2018-07-08T11:31:15.526Z,29.40
2018-07-08T11:33:46.233Z,28.70
2018-07-08T11:36:17.044Z,28.40
2018-07-08T11:38:47.678Z,28.60
2018-07-08T11:41:18.313Z,29.30
2018-07-08T11:43:48.953Z,29.10
2018-07-08T11:46:19.743Z,29.60
2018-07-08T11:48:50.443Z,29.50
2018-07-08T11:51:21.113Z,30.00
2018-07-08T11:53:51.716Z,30.60
2018-07-08T11:56:22.751Z,31.10
2018-07-08T11:58:53.455Z,32.10
2018-07-08T12:01:24.229Z,31.90
2018-07-08T12:03:54.947Z,32.40
2018-07-08T12:06:25.848Z,33.30
2018-07-08T12:08:56.566Z,34.00
2018-07-08T12:11:27.282Z,33.40
2018-07-08T12:13:57.935Z,33.60
2018-07-08T12:16:28.577Z,33.20
2018-07-08T12:18:59.205Z,33.80
2018-07-08T12:21:29.905Z,33.80
2018-07-08T12:24:00.617Z,34.20
2018-07-08T12:26:31.226Z,34.50
2018-07-08T12:29:01.837Z,33.80
2018-07-08T12:31:32.517Z,32.80
2018-07-08T12:34:03.235Z,32.50
2018-07-08T12:36:33.870Z,33.20
2018-07-08T12:39:05.946Z,32.70
2018-07-08T12:41:36.566Z,32.10
2018-07-08T12:44:07.285Z,33.30
2018-07-08T12:46:38.314Z,33.50
2018-07-08T12:49:08.977Z,34.20
2018-07-08T12:51:39.658Z,34.50
2018-07-08T12:54:10.326Z,36.60
2018-07-08T12:56:40.978Z,37.80
2018-07-08T12:59:11.579Z,39.30
2018-07-08T13:01:42.322Z,40.00
2018-07-08T13:04:12.933Z,40.70
2018-07-08T13:06:43.989Z,40.70
2018-07-08T13:09:14.517Z,40.20
2018-07-08T13:11:45.210Z,40.90
2018-07-08T13:14:15.795Z,40.30
2018-07-08T13:16:46.448Z,40.40
2018-07-08T13:19:17.315Z,40.50
2018-07-08T13:21:47.943Z,41.50
2018-07-08T13:24:18.610Z,42.10
2018-07-08T13:26:49.335Z,41.10
2018-07-08T13:29:20.058Z,40.90
2018-07-08T13:31:51.410Z,41.80
2018-07-08T13:34:22.381Z,43.00
2018-07-08T13:36:53.033Z,45.10
2018-07-08T13:39:23.665Z,46.30
2018-07-08T13:41:54.389Z,46.50
2018-07-08T13:44:25.028Z,47.10
2018-07-08T13:46:55.654Z,47.90
2018-07-08T13:49:26.290Z,48.60
2018-07-08T13:51:56.971Z,49.00
2018-07-08T13:54:27.586Z,49.20
2018-07-08T13:56:58.290Z,48.30
2018-07-08T13:59:28.964Z,48.90
2018-07-08T14:01:59.661Z,49.00
2018-07-08T14:04:30.281Z,48.60
2018-07-08T14:07:02.096Z,47.30
2018-07-08T14:09:33.115Z,47.40
2018-07-08T14:12:03.741Z,46.80
2018-07-08T14:14:34.440Z,46.70
2018-07-08T14:17:05.082Z,46.60
2018-07-08T14:19:35.646Z,46.80
2018-07-08T14:22:06.391Z,45.10
2018-07-08T14:24:37.107Z,44.90
2018-07-08T14:27:07.792Z,45.20
2018-07-08T14:29:38.401Z,45.30
2018-07-08T14:32:09.176Z,45.20
2018-07-08T14:34:39.860Z,44.20
2018-07-08T14:37:10.562Z,44.10
2018-07-08T14:39:41.200Z,44.50
2018-07-08T14:42:11.961Z,44.40
2018-07-08T14:44:42.612Z,45.10
2018-07-08T14:47:13.431Z,45.50
2018-07-08T14:49:44.085Z,45.70
2018-07-08T14:52:15.177Z,45.00
2018-07-08T14:54:45.817Z,40.60
2018-07-08T14:57:16.473Z,37.40
2018-07-08T14:59:47.139Z,34.40
2018-07-08T15:02:17.946Z,33.60
2018-07-08T15:04:48.667Z,32.40
2018-07-08T15:07:19.549Z,32.20
2018-07-08T15:09:50.185Z,29.40
2018-07-08T15:12:20.880Z,27.30
2018-07-08T15:14:51.576Z,28.30
2018-07-08T15:19:52.426Z,29.70
2018-07-08T15:24:53.289Z,26.80
2018-07-08T15:27:24.024Z,26.20
2018-07-08T15:29:54.801Z,26.00
2018-07-08T15:32:25.538Z,26.10
2018-07-08T15:34:56.306Z,25.20
2018-07-08T15:37:27.019Z,25.20
2018-07-08T15:39:57.730Z,25.40
2018-07-08T15:42:28.416Z,25.40
2018-07-08T15:44:59.143Z,25.30
2018-07-08T15:47:29.867Z,25.80
2018-07-08T15:50:00.498Z,25.40
2018-07-08T15:52:31.879Z,25.30
2018-07-08T15:55:02.586Z,25.20
2018-07-08T15:57:33.219Z,25.40
2018-07-08T16:00:03.974Z,24.40
2018-07-08T16:02:34.641Z,25.30
2018-07-08T16:05:05.319Z,25.60
2018-07-08T16:07:36.367Z,24.30
2018-07-08T16:10:07.770Z,23.90
2018-07-08T16:12:38.417Z,23.30
2018-07-08T16:15:09.026Z,23.50
2018-07-08T16:17:39.805Z,22.40
2018-07-08T16:20:10.435Z,22.20
2018-07-08T16:22:41.134Z,22.70
2018-07-08T16:25:11.742Z,20.90
2018-07-08T16:27:42.420Z,21.90
2018-07-08T16:30:13.085Z,22.50
2018-07-08T16:32:43.833Z,22.00
2018-07-08T16:35:14.417Z,21.20
2018-07-08T16:37:46.009Z,21.70
2018-07-08T16:40:16.691Z,21.70
2018-07-08T16:42:47.290Z,21.70
2018-07-08T16:45:18.016Z,21.90
2018-07-08T16:47:48.771Z,22.20
2018-07-08T16:50:19.450Z,22.00
2018-07-08T16:52:50.103Z,22.40
2018-07-08T16:55:20.799Z,22.60
2018-07-08T16:57:51.475Z,22.80
2018-07-08T17:00:22.063Z,22.30
2018-07-08T17:02:52.762Z,23.50
2018-07-08T17:05:23.446Z,23.40
2018-07-08T17:07:54.336Z,23.30
2018-07-08T17:10:24.938Z,23.30
2018-07-08T17:12:55.694Z,24.30
2018-07-08T17:15:26.321Z,25.30
2018-07-08T17:17:57.063Z,25.80
2018-07-08T17:20:27.774Z,26.70
2018-07-08T17:22:58.978Z,27.90
2018-07-08T17:25:29.690Z,28.50
2018-07-08T17:28:00.361Z,29.40
2018-07-08T17:33:02.087Z,31.10
2018-07-08T17:35:33.217Z,32.50
2018-07-08T17:38:03.948Z,33.50
2018-07-08T17:40:34.777Z,34.70
2018-07-08T17:43:05.666Z,35.10
2018-07-08T17:45:37.367Z,35.20
2018-07-08T17:48:08.207Z,36.20
2018-07-08T17:50:38.875Z,37.10
2018-07-08T17:53:09.649Z,37.80
2018-07-08T17:55:40.452Z,37.90
2018-07-08T17:58:11.985Z,39.20
2018-07-08T18:00:42.666Z,39.10
2018-07-08T18:03:13.383Z,39.40
2018-07-08T18:05:43.958Z,39.80
2018-07-08T18:08:14.581Z,41.10
2018-07-08T18:10:45.293Z,41.40
2018-07-08T18:13:16.382Z,41.50
2018-07-08T18:15:47.141Z,42.00
2018-07-08T18:18:17.715Z,42.80
2018-07-08T18:20:48.317Z,43.50
2018-07-08T18:23:18.962Z,44.40
2018-07-08T18:25:49.556Z,45.40
2018-07-08T18:28:20.416Z,45.50
2018-07-08T18:33:21.280Z,46.60
2018-07-08T18:35:51.924Z,46.40
2018-07-08T18:38:22.515Z,47.80
2018-07-08T18:40:53.223Z,48.30
2018-07-08T18:43:24.504Z,47.80
2018-07-08T18:45:55.614Z,48.30
2018-07-08T18:48:26.309Z,49.90
2018-07-08T18:50:56.951Z,49.80
2018-07-08T18:53:27.938Z,49.60
2018-07-08T18:55:58.521Z,50.10
2018-07-08T18:58:29.093Z,50.20
2018-07-08T19:01:00.486Z,49.60
2018-07-08T19:03:31.159Z,50.80
2018-07-08T19:06:01.829Z,51.80
2018-07-08T19:08:32.455Z,52.50
2018-07-08T19:11:03.209Z,51.80
2018-07-08T19:13:33.788Z,52.80
2018-07-08T19:16:04.431Z,52.50
2018-07-08T19:18:35.155Z,52.70
2018-07-08T19:21:05.941Z,53.20
2018-07-08T19:23:36.779Z,53.60
2018-07-08T19:26:07.638Z,53.60
2018-07-08T19:28:38.650Z,54.30
2018-07-08T19:36:09.625Z,55.50
2018-07-08T19:38:40.235Z,56.10
2018-07-08T19:41:10.845Z,56.90
2018-07-08T19:43:41.552Z,56.90
2018-07-08T19:46:12.170Z,57.10
2018-07-08T19:48:42.791Z,57.00
2018-07-08T19:51:13.385Z,57.30
2018-07-08T19:53:43.933Z,57.70
2018-07-08T19:56:14.543Z,58.70
2018-07-08T19:58:45.490Z,59.00
2018-07-08T20:01:16.239Z,58.80
2018-07-08T20:03:46.848Z,58.50
2018-07-08T20:06:17.601Z,58.50
2018-07-08T20:08:48.303Z,59.00
2018-07-08T20:11:18.938Z,59.80
2018-07-08T20:13:49.514Z,60.10
2018-07-08T20:16:20.313Z,60.40
2018-07-08T20:18:50.860Z,60.80
2018-07-08T20:21:21.950Z,61.40
2018-07-08T20:23:52.313Z,60.50
2018-07-08T20:26:23.010Z,61.30
2018-07-08T20:28:53.863Z,61.90
2018-07-08T20:31:24.438Z,60.60
2018-07-08T20:33:55.019Z,61.80
2018-07-08T20:36:25.663Z,61.90
2018-07-08T20:38:56.281Z,62.70
2018-07-08T20:41:26.860Z,62.40
2018-07-08T20:43:57.433Z,62.50
2018-07-08T20:46:28.033Z,63.10
2018-07-08T20:48:58.643Z,63.80
2018-07-08T20:51:29.241Z,63.60
2018-07-08T20:53:59.802Z,63.80
2018-07-08T20:56:30.386Z,63.80
2018-07-08T20:59:00.952Z,63.30
2018-07-08T21:01:31.694Z,63.60
2018-07-08T21:04:02.302Z,64.00
2018-07-08T21:06:32.900Z,63.70
2018-07-08T21:09:03.893Z,63.70
2018-07-08T21:11:34.497Z,64.00
2018-07-08T21:14:05.158Z,64.00
2018-07-08T21:16:35.914Z,64.10
2018-07-08T21:19:06.982Z,63.80
2018-07-08T21:21:37.670Z,64.00
2018-07-08T21:24:08.246Z,64.80
2018-07-08T21:26:38.891Z,65.40
2018-07-08T21:29:09.510Z,65.20
2018-07-08T21:31:40.906Z,65.00
2018-07-08T21:34:11.498Z,65.50
2018-07-08T21:36:42.508Z,65.60
2018-07-08T21:39:13.073Z,66.50
2018-07-08T21:41:43.697Z,67.20
2018-07-08T21:44:14.341Z,67.70
2018-07-08T21:46:44.988Z,67.90
2018-07-08T21:49:15.537Z,68.70
2018-07-08T21:51:46.150Z,68.80
2018-07-08T21:54:17.011Z,69.10
2018-07-08T21:56:47.645Z,69.30
2018-07-08T21:59:18.185Z,69.10
2018-07-08T22:02:10.436Z,69.40
2018-07-08T22:04:41.072Z,69.50
2018-07-08T22:07:16.851Z,69.90
2018-07-08T22:09:47.540Z,70.10
2018-07-08T22:12:18.220Z,70.20
2018-07-08T22:14:49.093Z,70.40
2018-07-08T22:17:19.662Z,70.20
2018-07-08T22:19:50.255Z,70.60
2018-07-08T22:22:20.877Z,71.10
2018-07-08T22:24:51.513Z,71.60
2018-07-08T22:27:22.104Z,71.80
2018-07-08T22:29:52.712Z,72.00
2018-07-08T22:32:23.268Z,71.50
2018-07-08T22:34:53.870Z,72.10
2018-07-08T22:37:24.432Z,72.20
2018-07-08T22:39:55.039Z,72.00
2018-07-08T22:42:25.625Z,72.50
2018-07-08T22:44:56.292Z,72.90
2018-07-08T22:47:26.905Z,73.50
2018-07-08T22:49:57.760Z,74.20
2018-07-08T22:52:28.381Z,74.30
2018-07-08T22:54:58.936Z,74.40
2018-07-08T22:57:29.514Z,74.30
2018-07-08T23:00:16.812Z,74.90
2018-07-08T23:02:48.055Z,74.50
2018-07-08T23:05:18.667Z,74.80
2018-07-08T23:07:49.297Z,74.20
2018-07-08T23:10:19.880Z,74.20
2018-07-08T23:12:50.507Z,75.00
2018-07-08T23:15:21.070Z,75.80
2018-07-08T23:17:51.670Z,75.70
2018-07-08T23:20:22.233Z,75.80
2018-07-08T23:23:00.036Z,75.90
2018-07-08T23:25:30.592Z,76.60
2018-07-08T23:28:01.192Z,76.80
2018-07-08T23:30:31.768Z,76.50
2018-07-08T23:33:02.366Z,76.80
2018-07-08T23:35:33.019Z,77.10
2018-07-08T23:38:03.589Z,77.20
2018-07-08T23:40:34.117Z,77.20
2018-07-08T23:43:04.756Z,77.80
2018-07-08T23:45:35.388Z,78.10
2018-07-08T23:48:06.318Z,78.20
2018-07-08T23:50:36.979Z,78.40
2018-07-08T23:53:07.606Z,77.60
2018-07-08T23:55:38.281Z,77.50
2018-07-08T23:58:09.042Z,78.00
